Time;durP1;ratioP1;P1;durP2;ratioP2;P2;SDS_P1;SDS_P2;PMS_P1;PMS_P2;Temp;Humidity;BMP_temperature;BMP_pressure;BME280_temperature;BME280_humidity;BME280_pressure;Samples;Min_cycle;Max_cycle;Signal;HPM_P1;HPM_P2
2023/12/10 00:01:21;;;;;;;34.25;4.47;;;7.70;99.90;;;;;;5073429;28;20465;-46
2023/12/10 00:03:47;;;;;;;29.00;4.72;;;7.80;99.90;;;;;;5055550;28;20051;-47
2023/12/10 00:06:13;;;;;;;28.92;3.65;;;7.80;99.90;;;;;;5072265;28;20055;-46
2023/12/10 00:08:38;;;;;;;27.90;3.88;;;7.70;99.90;;;;;;5073312;28;20044;-48
2023/12/10 00:11:04;;;;;;;20.88;4.32;;;7.90;99.90;;;;;;5073114;28;20456;-48
2023/12/10 00:13:30;;;;;;;31.75;5.45;;;7.90;99.90;;;;;;5071767;28;20048;-46
2023/12/10 00:15:55;;;;;;;26.13;4.65;;;7.90;99.90;;;;;;5073373;28;20285;-50
2023/12/10 00:18:21;;;;;;;29.00;4.88;;;7.90;99.90;;;;;;5073279;28;20033;-46
2023/12/10 00:20:47;;;;;;;27.40;4.53;;;8.10;99.90;;;;;;5073239;28;20040;-45
2023/12/10 00:23:13;;;;;;;28.95;4.65;;;8.10;99.90;;;;;;5071665;28;20121;-45
2023/12/10 00:25:39;;;;;;;20.40;4.00;;;8.10;99.90;;;;;;5073158;28;20059;-46
2023/12/10 00:28:05;;;;;;;24.35;5.22;;;8.10;99.90;;;;;;5073078;28;20179;-48
2023/12/10 00:30:30;;;;;;;22.13;3.60;;;8.10;99.90;;;;;;5072871;28;20149;-60
2023/12/10 00:32:56;;;;;;;24.95;4.68;;;8.20;99.90;;;;;;5072509;28;20497;-61
2023/12/10 00:35:22;;;;;;;24.08;3.97;;;8.10;99.90;;;;;;5072854;28;20115;-60
2023/12/10 00:37:47;;;;;;;27.35;4.78;;;8.10;99.90;;;;;;5072960;28;20532;-60
2023/12/10 00:40:15;;;;;;;22.30;4.38;;;8.20;99.90;;;;;;5072682;28;20555;-60
2023/12/10 00:42:43;;;;;;;22.77;4.32;;;8.10;99.90;;;;;;5072845;28;20067;-60
2023/12/10 00:45:09;;;;;;;22.10;3.90;;;8.10;99.90;;;;;;5070752;28;20052;-60
2023/12/10 00:47:35;;;;;;;22.85;3.72;;;8.10;99.90;;;;;;5072768;28;20041;-60
2023/12/10 00:50:00;;;;;;;22.92;5.05;;;8.00;99.90;;;;;;5072464;28;20106;-60
2023/12/10 00:52:26;;;;;;;25.70;4.00;;;8.10;99.90;;;;;;5072409;28;20036;-61
2023/12/10 00:54:52;;;;;;;25.38;4.72;;;8.10;99.90;;;;;;5072226;28;20083;-60
2023/12/10 00:57:17;;;;;;;22.33;3.33;;;8.10;99.90;;;;;;5071195;28;20071;-61
2023/12/10 00:59:43;;;;;;;25.25;3.60;;;8.10;99.90;;;;;;5072289;28;20098;-60
2023/12/10 01:02:09;;;;;;;19.40;4.75;;;8.10;99.90;;;;;;5072643;28;20036;-60
2023/12/10 01:04:35;;;;;;;24.60;4.32;;;8.00;99.90;;;;;;5072303;28;20477;-60
2023/12/10 01:07:01;;;;;;;26.45;5.43;;;8.00;99.90;;;;;;5072333;28;20074;-60
2023/12/10 01:09:26;;;;;;;18.48;3.70;;;8.00;99.90;;;;;;5072248;28;20040;-61
2023/12/10 01:11:52;;;;;;;26.50;5.22;;;7.90;99.90;;;;;;5071117;28;20056;-60
2023/12/10 01:14:18;;;;;;;21.63;3.65;;;7.80;99.90;;;;;;5070715;28;20477;-61
2023/12/10 01:16:43;;;;;;;23.08;3.35;;;7.80;99.90;;;;;;5072001;28;20044;-59
2023/12/10 01:19:09;;;;;;;21.65;3.45;;;7.80;99.90;;;;;;5071073;28;20037;-60
2023/12/10 01:21:35;;;;;;;22.08;3.60;;;7.70;99.90;;;;;;5072372;28;20469;-60
2023/12/10 01:24:00;;;;;;;17.45;4.13;;;7.70;99.90;;;;;;5072322;28;20041;-60
2023/12/10 01:26:26;;;;;;;25.55;3.95;;;7.70;99.90;;;;;;5072008;28;20044;-61
2023/12/10 01:28:52;;;;;;;23.63;3.17;;;7.70;99.90;;;;;;5072136;28;20036;-60
2023/12/10 01:31:17;;;;;;;23.00;3.53;;;7.60;99.90;;;;;;5072032;28;20052;-61
2023/12/10 01:33:43;;;;;;;22.00;4.78;;;7.50;99.90;;;;;;5071775;28;20132;-61
2023/12/10 01:36:21;;;;;;;26.60;4.43;;;7.40;99.90;;;;;;5071992;28;20080;-61
2023/12/10 01:38:47;;;;;;;22.83;3.55;;;7.50;99.90;;;;;;5054095;28;20043;-61
2023/12/10 01:41:12;;;;;;;28.08;4.00;;;7.30;99.90;;;;;;5070620;28;20396;-60
2023/12/10 01:43:38;;;;;;;21.60;3.63;;;7.50;99.90;;;;;;5071979;28;20044;-60
2023/12/10 01:46:04;;;;;;;28.25;4.70;;;7.30;99.90;;;;;;5072112;28;20052;-60
2023/12/10 01:48:30;;;;;;;31.25;6.43;;;7.20;99.90;;;;;;5070691;28;20075;-60
2023/12/10 01:50:56;;;;;;;28.52;4.57;;;7.20;99.90;;;;;;5071695;28;20149;-61
2023/12/10 01:53:22;;;;;;;25.27;4.10;;;7.30;99.90;;;;;;5071644;28;20193;-60
2023/12/10 01:55:48;;;;;;;25.00;3.97;;;7.40;99.90;;;;;;5073066;28;20524;-60
2023/12/10 01:58:14;;;;;;;36.60;5.60;;;7.50;99.90;;;;;;5076183;28;20036;-60
2023/12/10 02:00:40;;;;;;;33.60;5.63;;;7.20;99.90;;;;;;5075750;28;20137;-60
2023/12/10 02:03:07;;;;;;;27.65;4.15;;;7.20;99.90;;;;;;5075820;28;20048;-61
2023/12/10 02:05:32;;;;;;;23.45;4.45;;;7.20;99.90;;;;;;5075500;28;20123;-60
2023/12/10 02:07:58;;;;;;;25.23;3.53;;;7.10;99.90;;;;;;5075567;28;20128;-61
2023/12/10 02:10:24;;;;;;;23.25;3.55;;;7.10;99.90;;;;;;5075415;28;20036;-61
2023/12/10 02:12:53;;;;;;;19.35;3.60;;;7.30;99.90;;;;;;5075785;28;20052;-50
2023/12/10 02:15:20;;;;;;;30.42;4.55;;;7.10;99.90;;;;;;5075513;28;20036;-47
2023/12/10 02:17:47;;;;;;;26.63;4.20;;;7.40;99.90;;;;;;5075735;28;20033;-47
2023/12/10 02:20:14;;;;;;;28.02;5.20;;;7.10;99.90;;;;;;5075537;28;20037;-46
2023/12/10 02:23:05;;;;;;;16.63;3.83;;;7.10;99.90;;;;;;5074262;28;20048;-47
2023/12/10 02:25:35;;;;;;;20.10;3.50;;;7.40;99.90;;;;;;5064837;28;20102;-49
2023/12/10 02:28:08;;;;;;;23.98;3.78;;;7.10;99.90;;;;;;5075311;28;20340;-48
2023/12/10 02:30:35;;;;;;;22.15;4.05;;;7.10;99.90;;;;;;5075410;28;20036;-48
2023/12/10 02:33:01;;;;;;;21.65;3.35;;;7.10;99.90;;;;;;5073684;28;20053;-47
2023/12/10 02:35:27;;;;;;;27.27;4.43;;;7.20;99.90;;;;;;5075007;28;20040;-49
2023/12/10 02:37:53;;;;;;;22.50;3.50;;;7.10;99.90;;;;;;5075193;28;20074;-48
2023/12/10 02:40:18;;;;;;;20.88;3.03;;;7.10;99.90;;;;;;5074958;28;20536;-46
2023/12/10 02:42:47;;;;;;;19.55;4.57;;;7.40;99.90;;;;;;5073643;28;20082;-45
2023/12/10 02:45:16;;;;;;;28.00;4.00;;;7.40;99.90;;;;;;5074787;28;20036;-47
2023/12/10 02:47:42;;;;;;;22.92;4.05;;;7.40;99.90;;;;;;5074927;28;20029;-45
2023/12/10 02:50:08;;;;;;;23.58;3.83;;;7.10;99.90;;;;;;5074794;28;20457;-47
2023/12/10 02:52:36;;;;;;;25.30;3.72;;;7.40;99.90;;;;;;5074500;28;20075;-46
2023/12/10 02:55:03;;;;;;;19.50;3.45;;;7.00;99.90;;;;;;5074449;28;20087;-45
2023/12/10 02:57:28;;;;;;;21.38;3.63;;;7.00;99.90;;;;;;5074858;28;20144;-46
2023/12/10 02:59:54;;;;;;;22.48;3.40;;;7.40;99.90;;;;;;5074755;28;20455;-46
2023/12/10 03:02:20;;;;;;;31.33;4.15;;;7.40;99.90;;;;;;5074364;28;20102;-48
2023/12/10 03:04:45;;;;;;;22.27;3.50;;;7.00;99.90;;;;;;5074785;28;20068;-45
2023/12/10 03:07:11;;;;;;;15.48;3.17;;;7.30;99.90;;;;;;5072539;28;20048;-45
2023/12/10 03:09:37;;;;;;;18.25;2.85;;;7.40;99.90;;;;;;5074377;28;20117;-47
2023/12/10 03:12:03;;;;;;;14.18;2.53;;;7.40;99.90;;;;;;5073277;28;20048;-46
2023/12/10 03:14:28;;;;;;;15.43;2.65;;;7.00;99.90;;;;;;5074337;28;20054;-45
2023/12/10 03:16:54;;;;;;;17.35;2.55;;;7.00;99.90;;;;;;5074677;28;20044;-47
2023/12/10 03:19:20;;;;;;;20.17;4.03;;;7.20;99.90;;;;;;5074572;28;20155;-44
2023/12/10 03:21:45;;;;;;;20.10;2.78;;;7.00;99.90;;;;;;5074438;28;20040;-45
2023/12/10 03:24:11;;;;;;;19.35;3.17;;;7.10;99.90;;;;;;5074408;28;20403;-45
2023/12/10 03:26:37;;;;;;;17.00;2.63;;;7.00;99.90;;;;;;5073978;28;20048;-49
2023/12/10 03:29:02;;;;;;;15.63;2.42;;;7.20;99.90;;;;;;5074017;28;20061;-49
2023/12/10 03:31:28;;;;;;;14.55;2.28;;;7.30;99.90;;;;;;5073943;28;20052;-46
2023/12/10 03:33:54;;;;;;;12.75;2.47;;;7.40;99.90;;;;;;5074141;28;20059;-47
2023/12/10 03:36:20;;;;;;;16.23;2.72;;;7.30;99.90;;;;;;5074206;28;20511;-46
2023/12/10 03:38:47;;;;;;;12.13;2.33;;;7.30;99.90;;;;;;5073889;28;20093;-50
2023/12/10 03:41:12;;;;;;;14.23;2.30;;;7.40;99.90;;;;;;5072439;28;20575;-48
2023/12/10 03:43:38;;;;;;;12.98;1.90;;;7.40;99.90;;;;;;5073667;28;20044;-49
2023/12/10 03:46:04;;;;;;;13.68;2.13;;;6.80;99.90;;;;;;5073884;28;20124;-50
2023/12/10 03:48:30;;;;;;;11.25;2.40;;;6.80;99.90;;;;;;5073789;28;20040;-47
2023/12/10 03:50:55;;;;;;;14.43;2.33;;;6.80;99.90;;;;;;5073759;28;20047;-49
2023/12/10 03:53:22;;;;;;;12.05;1.98;;;7.10;99.90;;;;;;5073507;28;20128;-48
2023/12/10 03:55:48;;;;;;;11.82;1.52;;;6.90;99.90;;;;;;5073305;28;20059;-49
2023/12/10 03:58:13;;;;;;;9.95;1.65;;;7.50;99.90;;;;;;5055228;28;20481;-48
2023/12/10 04:00:39;;;;;;;10.27;1.73;;;7.50;99.90;;;;;;5073213;28;20041;-47
2023/12/10 04:03:05;;;;;;;6.95;1.50;;;6.90;99.90;;;;;;5073626;28;20495;-48
2023/12/10 04:05:31;;;;;;;13.30;1.70;;;7.60;99.90;;;;;;5073222;28;20044;-50
2023/12/10 04:07:56;;;;;;;12.38;2.05;;;7.70;99.90;;;;;;5073427;28;20059;-46
2023/12/10 04:10:22;;;;;;;10.48;1.70;;;7.70;99.90;;;;;;5073361;28;20536;-49
2023/12/10 04:12:48;;;;;;;12.15;1.95;;;7.80;99.90;;;;;;5073432;28;20132;-50
2023/12/10 04:15:13;;;;;;;12.40;3.35;;;7.80;99.90;;;;;;5071790;28;20102;-47
2023/12/10 04:17:39;;;;;;;11.00;1.60;;;7.00;99.90;;;;;;5073245;28;20059;-48
2023/12/10 04:20:07;;;;;;;11.35;2.08;;;7.90;99.90;;;;;;5072020;28;20071;-60
2023/12/10 04:22:32;;;;;;;14.70;2.78;;;7.20;99.90;;;;;;5073144;28;20082;-60
2023/12/10 04:24:58;;;;;;;6.70;1.65;;;7.10;99.90;;;;;;5073056;28;20076;-61
2023/12/10 04:27:24;;;;;;;11.50;1.70;;;7.50;99.90;;;;;;5072881;28;20055;-60
2023/12/10 04:29:50;;;;;;;9.80;1.65;;;7.30;99.90;;;;;;5072737;28;20044;-61
2023/12/10 04:32:17;;;;;;;12.27;2.30;;;7.20;99.90;;;;;;5072783;28;20048;-61
2023/12/10 04:34:42;;;;;;;14.82;2.28;;;7.20;99.90;;;;;;5073013;28;20044;-61
2023/12/10 04:37:08;;;;;;;14.75;2.28;;;8.10;99.90;;;;;;5073039;28;20443;-60
2023/12/10 04:39:34;;;;;;;20.02;2.42;;;7.30;99.90;;;;;;5072954;28;20068;-46
2023/12/10 04:41:59;;;;;;;14.98;2.15;;;7.60;99.90;;;;;;5072700;28;20033;-45
2023/12/10 04:44:25;;;;;;;18.60;2.97;;;8.20;99.90;;;;;;5072352;28;20125;-46
2023/12/10 04:46:51;;;;;;;12.93;2.72;;;8.20;99.90;;;;;;5072421;28;20044;-46
2023/12/10 04:49:17;;;;;;;17.17;2.33;;;8.10;99.90;;;;;;5072442;28;20040;-46
2023/12/10 04:51:43;;;;;;;20.25;3.47;;;7.30;99.90;;;;;;5072632;28;20043;-48
2023/12/10 04:54:08;;;;;;;12.57;2.47;;;7.30;99.90;;;;;;5072368;28;20120;-47
2023/12/10 04:56:34;;;;;;;11.88;2.15;;;7.20;99.90;;;;;;5071918;28;20090;-47
2023/12/10 04:59:00;;;;;;;14.00;1.90;;;7.30;99.90;;;;;;5072034;28;20032;-45
2023/12/10 05:01:25;;;;;;;16.15;3.60;;;7.30;99.90;;;;;;5072245;28;20447;-46
2023/12/10 05:03:51;;;;;;;14.52;2.38;;;7.30;99.90;;;;;;5072148;28;20051;-47
2023/12/10 05:06:17;;;;;;;13.32;2.15;;;8.30;99.90;;;;;;5072175;28;20048;-48
2023/12/10 05:08:43;;;;;;;9.07;1.42;;;7.20;99.90;;;;;;5072098;28;20376;-46
2023/12/10 05:11:09;;;;;;;17.15;2.17;;;7.70;99.90;;;;;;5072194;28;20037;-46
2023/12/10 05:13:35;;;;;;;11.27;1.60;;;7.70;99.90;;;;;;5071893;28;20476;-47
2023/12/10 05:16:01;;;;;;;14.65;1.90;;;8.00;99.90;;;;;;5072061;28;20033;-49
2023/12/10 05:18:28;;;;;;;8.80;1.88;;;7.20;99.90;;;;;;5071843;28;20036;-48
2023/12/10 05:20:53;;;;;;;11.75;1.48;;;7.50;99.90;;;;;;5071931;28;20477;-48
2023/12/10 05:23:19;;;;;;;10.13;1.55;;;7.20;99.90;;;;;;5071805;28;20097;-48
2023/12/10 05:25:45;;;;;;;10.13;2.03;;;8.20;99.90;;;;;;5071820;28;20119;-48
2023/12/10 05:28:11;;;;;;;13.63;2.60;;;7.30;99.90;;;;;;5072137;28;20044;-46
2023/12/10 05:30:36;;;;;;;11.95;3.47;;;7.90;99.90;;;;;;5071702;28;20619;-48
2023/12/10 05:33:02;;;;;;;7.57;1.50;;;7.40;99.90;;;;;;5071595;28;20063;-49
2023/12/10 05:35:29;;;;;;;6.40;1.48;;;8.00;99.90;;;;;;5071666;28;20047;-49
2023/12/10 05:37:54;;;;;;;9.93;2.75;;;8.10;99.90;;;;;;5071914;28;20059;-46
2023/12/10 05:40:20;;;;;;;11.07;1.73;;;7.70;99.90;;;;;;5070879;28;20480;-47
2023/12/10 05:42:46;;;;;;;5.65;1.27;;;7.50;99.90;;;;;;5071976;28;20075;-47
2023/12/10 05:45:12;;;;;;;6.70;1.38;;;8.00;99.90;;;;;;5071752;28;20048;-46
2023/12/10 05:47:37;;;;;;;7.95;1.20;;;7.50;99.90;;;;;;5071949;28;20094;-46
2023/12/10 05:50:03;;;;;;;12.65;1.80;;;7.90;99.90;;;;;;5071872;28;20037;-46
2023/12/10 05:52:29;;;;;;;13.18;1.70;;;8.00;99.90;;;;;;5071751;28;20041;-45
2023/12/10 05:54:55;;;;;;;10.68;2.00;;;8.00;99.90;;;;;;5071596;28;20045;-46
2023/12/10 05:57:21;;;;;;;15.70;1.83;;;7.80;99.90;;;;;;5071894;28;20442;-46
2023/12/10 05:59:46;;;;;;;9.60;1.40;;;8.10;99.90;;;;;;5071899;28;20040;-47
2023/12/10 06:02:12;;;;;;;12.43;1.95;;;8.10;99.90;;;;;;5071606;28;20040;-46
2023/12/10 06:04:38;;;;;;;11.30;1.60;;;8.10;99.90;;;;;;5071710;28;20040;-45
2023/12/10 06:07:04;;;;;;;9.60;1.50;;;8.10;99.90;;;;;;5071670;28;20037;-47
2023/12/10 06:09:29;;;;;;;14.10;2.10;;;7.70;99.90;;;;;;5071999;28;20067;-45
2023/12/10 06:11:55;;;;;;;8.65;1.52;;;8.10;99.90;;;;;;5071524;28;20368;-47
2023/12/10 06:14:21;;;;;;;17.67;1.95;;;8.10;99.90;;;;;;5071676;28;20072;-46
2023/12/10 06:16:46;;;;;;;15.10;1.90;;;8.10;99.90;;;;;;5071853;28;20037;-45
2023/12/10 06:19:12;;;;;;;16.20;2.50;;;8.10;99.90;;;;;;5071789;28;20047;-44
2023/12/10 06:21:38;;;;;;;20.15;4.28;;;8.10;99.90;;;;;;5071885;28;20041;-45
2023/12/10 06:24:04;;;;;;;17.38;2.78;;;8.10;99.90;;;;;;5071565;28;20098;-46
2023/12/10 06:26:30;;;;;;;20.55;2.83;;;8.20;99.90;;;;;;5071545;28;20738;-46
2023/12/10 06:28:56;;;;;;;20.88;2.67;;;8.10;99.90;;;;;;5071656;28;20036;-46
2023/12/10 06:31:22;;;;;;;17.48;2.08;;;8.10;99.90;;;;;;5071457;28;20048;-46
2023/12/10 06:33:48;;;;;;;21.08;2.90;;;7.90;99.90;;;;;;5071580;28;20115;-46
2023/12/10 06:36:14;;;;;;;18.10;3.17;;;7.90;99.90;;;;;;5071442;28;20083;-49
2023/12/10 06:38:39;;;;;;;13.82;2.42;;;8.10;99.90;;;;;;5071674;28;20040;-45
2023/12/10 06:41:06;;;;;;;14.15;2.70;;;8.00;99.90;;;;;;5071618;28;20432;-45
2023/12/10 06:43:32;;;;;;;15.00;2.67;;;8.00;99.90;;;;;;5073567;28;20083;-48
2023/12/10 06:46:01;;;;;;;13.82;2.33;;;8.20;99.90;;;;;;5075040;28;20068;-46
2023/12/10 06:48:26;;;;;;;18.42;2.85;;;8.10;99.90;;;;;;5074674;28;20052;-45
2023/12/10 06:50:53;;;;;;;19.42;3.13;;;8.00;99.90;;;;;;5075136;28;20102;-47
2023/12/10 06:53:18;;;;;;;23.65;3.53;;;8.10;99.90;;;;;;5074729;28;20401;-45
2023/12/10 06:55:45;;;;;;;18.63;3.88;;;7.90;99.90;;;;;;5074898;28;20047;-47
2023/12/10 06:58:11;;;;;;;18.40;3.78;;;8.20;99.90;;;;;;5074990;28;20032;-45
2023/12/10 07:00:36;;;;;;;22.25;2.92;;;8.20;99.90;;;;;;5074872;28;20082;-47
2023/12/10 07:03:02;;;;;;;23.13;3.13;;;8.00;99.90;;;;;;5074735;28;20123;-50
2023/12/10 07:05:28;;;;;;;24.00;3.42;;;8.10;99.90;;;;;;5074534;28;20488;-47
2023/12/10 07:07:53;;;;;;;14.80;3.45;;;7.80;99.90;;;;;;5074526;28;20044;-49
2023/12/10 07:10:19;;;;;;;17.35;2.30;;;8.20;99.90;;;;;;5074514;28;20063;-49
2023/12/10 07:12:45;;;;;;;19.73;2.95;;;8.20;99.90;;;;;;5074368;28;20400;-47
2023/12/10 07:15:11;;;;;;;16.70;2.58;;;8.10;99.90;;;;;;5074201;28;20044;-47
2023/12/10 07:17:37;;;;;;;19.13;2.58;;;8.00;99.90;;;;;;5074389;28;20032;-48
2023/12/10 07:20:03;;;;;;;12.65;1.67;;;8.10;99.90;;;;;;5074225;28;20143;-48
2023/12/10 07:22:29;;;;;;;14.30;2.50;;;8.10;99.90;;;;;;5074202;28;20036;-47
2023/12/10 07:24:54;;;;;;;15.27;1.90;;;8.10;99.90;;;;;;5074303;28;20059;-47
2023/12/10 07:27:20;;;;;;;12.35;1.92;;;8.00;99.90;;;;;;5074264;28;20486;-49
2023/12/10 07:29:46;;;;;;;14.07;2.53;;;8.30;99.90;;;;;;5073846;28;20047;-47
2023/12/10 07:32:11;;;;;;;10.23;1.88;;;8.10;99.90;;;;;;5074020;28;20151;-47
2023/12/10 07:34:37;;;;;;;13.82;2.00;;;8.10;99.90;;;;;;5073762;28;20543;-46
2023/12/10 07:37:03;;;;;;;12.40;1.80;;;8.00;99.90;;;;;;5074118;28;20036;-46
2023/12/10 07:39:29;;;;;;;15.45;1.70;;;8.40;99.90;;;;;;5073780;28;20044;-46
2023/12/10 07:41:55;;;;;;;15.77;2.08;;;8.00;99.90;;;;;;5072493;28;20442;-47
2023/12/10 07:44:21;;;;;;;12.15;1.88;;;8.10;99.90;;;;;;5073839;28;20146;-46
2023/12/10 07:46:46;;;;;;;11.95;1.60;;;8.00;99.90;;;;;;5074057;28;20495;-49
2023/12/10 07:49:12;;;;;;;13.18;2.03;;;8.20;99.90;;;;;;5073781;28;20374;-46
2023/12/10 07:51:38;;;;;;;15.77;2.40;;;8.30;99.90;;;;;;5073762;28;20047;-45
2023/12/10 07:54:03;;;;;;;13.95;1.90;;;8.30;99.90;;;;;;5073578;28;20055;-46
2023/12/10 07:56:30;;;;;;;12.65;2.22;;;8.00;99.90;;;;;;5072323;28;20522;-46
2023/12/10 07:58:56;;;;;;;18.95;2.60;;;8.30;99.90;;;;;;5073461;28;20480;-45
2023/12/10 08:01:22;;;;;;;13.82;1.88;;;8.10;99.90;;;;;;5073559;28;20033;-46
2023/12/10 08:03:47;;;;;;;15.25;3.03;;;8.30;99.90;;;;;;5073640;28;20561;-46
2023/12/10 08:06:13;;;;;;;16.42;2.63;;;7.90;99.90;;;;;;5073341;28;20063;-45
2023/12/10 08:08:39;;;;;;;15.43;1.88;;;8.40;99.90;;;;;;5073544;28;20123;-50
2023/12/10 08:11:05;;;;;;;14.50;2.30;;;8.00;99.90;;;;;;5073621;28;20123;-47
2023/12/10 08:13:31;;;;;;;16.27;1.95;;;8.40;99.90;;;;;;5073254;28;20059;-45
2023/12/10 08:15:57;;;;;;;13.48;1.90;;;8.30;99.90;;;;;;5073211;28;20063;-61
2023/12/10 08:18:24;;;;;;;8.57;1.45;;;8.40;99.90;;;;;;5073164;28;20814;-60
2023/12/10 08:20:49;;;;;;;15.63;1.70;;;8.40;99.90;;;;;;5073138;28;20090;-59
2023/12/10 08:23:15;;;;;;;11.43;2.00;;;7.90;99.90;;;;;;5073202;28;20036;-58
2023/12/10 08:25:41;;;;;;;9.13;1.67;;;8.20;99.90;;;;;;5073302;28;20048;-61
2023/12/10 08:28:07;;;;;;;14.40;2.10;;;7.90;99.90;;;;;;5072986;28;20048;-60
2023/12/10 08:30:33;;;;;;;16.92;2.28;;;8.00;99.90;;;;;;5073051;28;20051;-60
2023/12/10 08:32:59;;;;;;;18.85;2.88;;;7.90;99.90;;;;;;5072649;28;20052;-61
2023/12/10 08:35:25;;;;;;;13.43;2.60;;;7.70;99.90;;;;;;5071569;28;20131;-60
2023/12/10 08:37:50;;;;;;;14.77;3.28;;;7.70;99.90;;;;;;5073097;28;20419;-60
2023/12/10 08:40:16;;;;;;;15.73;2.85;;;8.00;99.90;;;;;;5072886;28;20040;-61
2023/12/10 08:42:42;;;;;;;14.60;1.70;;;7.70;99.90;;;;;;5072469;28;20076;-60
2023/12/10 08:45:08;;;;;;;14.88;1.90;;;8.20;99.90;;;;;;5072725;28;20086;-60
2023/12/10 08:47:35;;;;;;;10.40;1.98;;;7.60;99.90;;;;;;5072826;28;20048;-60
2023/12/10 08:50:03;;;;;;;12.77;2.33;;;7.60;99.90;;;;;;5072554;28;20090;-60
2023/12/10 08:52:29;;;;;;;14.95;2.60;;;8.00;99.90;;;;;;5072756;28;20044;-60
2023/12/10 08:54:55;;;;;;;14.48;2.58;;;8.10;99.90;;;;;;5072662;28;20097;-60
2023/12/10 08:57:22;;;;;;;13.02;2.03;;;7.60;99.90;;;;;;5072444;28;20528;-60
2023/12/10 08:59:47;;;;;;;15.52;3.10;;;7.50;99.90;;;;;;5072567;28;20391;-60
2023/12/10 09:02:13;;;;;;;23.08;3.17;;;7.90;99.90;;;;;;5071489;28;20051;-61
2023/12/10 09:04:39;;;;;;;22.13;3.33;;;8.30;99.90;;;;;;5072317;28;20040;-60
2023/12/10 09:07:04;;;;;;;20.58;3.30;;;7.60;99.90;;;;;;5072128;28;20032;-60
2023/12/10 09:09:32;;;;;;;22.13;3.20;;;7.60;99.90;;;;;;5072512;28;20048;-60
2023/12/10 09:11:59;;;;;;;21.67;2.95;;;8.20;99.90;;;;;;5072238;28;20044;-60
2023/12/10 09:14:24;;;;;;;24.50;2.80;;;7.70;99.90;;;;;;5070846;28;20041;-60
2023/12/10 09:16:51;;;;;;;17.48;2.40;;;8.10;99.90;;;;;;5072154;28;20048;-60
2023/12/10 09:19:17;;;;;;;26.23;4.03;;;8.10;99.90;;;;;;5072170;28;20036;-60
2023/12/10 09:21:43;;;;;;;17.95;2.25;;;7.80;99.90;;;;;;5072420;28;20046;-60
2023/12/10 09:24:09;;;;;;;16.15;2.22;;;7.80;99.90;;;;;;5072337;28;20079;-60
2023/12/10 09:26:35;;;;;;;20.50;2.53;;;7.70;99.90;;;;;;5072045;28;20044;-60
2023/12/10 09:29:01;;;;;;;19.15;3.10;;;8.10;99.90;;;;;;5072290;28;20063;-60
2023/12/10 09:31:27;;;;;;;13.68;2.15;;;7.80;99.90;;;;;;5072067;28;20500;-60
2023/12/10 09:33:53;;;;;;;17.80;3.05;;;7.50;99.90;;;;;;5071952;28;20079;-60
2023/12/10 09:36:18;;;;;;;16.65;3.20;;;7.70;99.90;;;;;;5072009;28;20048;-60
2023/12/10 09:38:44;;;;;;;12.52;1.77;;;8.10;99.90;;;;;;5071992;28;20037;-60
2023/12/10 09:41:10;;;;;;;16.60;2.53;;;7.70;99.90;;;;;;5072167;28;20124;-46
2023/12/10 09:43:36;;;;;;;16.08;2.17;;;7.60;99.90;;;;;;5071916;28;20123;-45
2023/12/10 09:46:03;;;;;;;16.13;2.70;;;7.60;99.90;;;;;;5071930;28;20087;-45
2023/12/10 09:48:31;;;;;;;16.17;3.63;;;7.70;99.90;;;;;;5071716;28;20044;-45
2023/12/10 09:50:57;;;;;;;19.70;2.80;;;7.70;99.90;;;;;;5071886;28;20048;-47
2023/12/10 09:53:23;;;;;;;12.20;2.50;;;7.60;99.90;;;;;;5071471;28;20051;-45
2023/12/10 09:55:49;;;;;;;15.73;2.83;;;7.80;99.90;;;;;;5071925;28;20029;-47
2023/12/10 09:58:15;;;;;;;17.08;2.30;;;7.80;99.90;;;;;;5071594;28;20522;-47
2023/12/10 10:00:41;;;;;;;15.73;2.55;;;7.60;99.90;;;;;;5071823;28;20147;-46
2023/12/10 10:03:06;;;;;;;11.45;2.33;;;7.60;99.90;;;;;;5071661;28;20067;-47
2023/12/10 10:05:36;;;;;;;17.88;3.15;;;7.70;99.90;;;;;;5071665;28;20078;-47
2023/12/10 10:08:02;;;;;;;15.93;2.30;;;7.80;99.90;;;;;;5071790;28;20037;-46
2023/12/10 10:10:27;;;;;;;20.90;2.50;;;7.90;99.90;;;;;;5071869;28;20036;-60
2023/12/10 10:12:54;;;;;;;18.50;2.80;;;7.70;99.90;;;;;;5071574;28;20033;-60
2023/12/10 10:15:28;;;;;;;23.00;3.08;;;7.80;99.90;;;;;;5071501;28;20397;-60
2023/12/10 10:17:54;;;;;;;22.98;3.30;;;8.10;99.90;;;;;;5072930;28;20110;-60
2023/12/10 10:20:24;;;;;;;14.38;1.92;;;7.70;99.90;;;;;;5074300;28;20492;-49
2023/12/10 10:22:51;;;;;;;17.92;2.30;;;8.10;99.90;;;;;;5074244;28;20036;-46
2023/12/10 10:25:18;;;;;;;9.68;2.10;;;7.80;99.90;;;;;;5075282;28;20045;-46
2023/12/10 10:27:43;;;;;;;17.35;2.03;;;8.10;99.90;;;;;;5073697;28;20143;-46
2023/12/10 10:30:10;;;;;;;16.73;2.00;;;7.60;99.90;;;;;;5074197;28;20123;-45
2023/12/10 10:32:36;;;;;;;19.27;2.33;;;8.20;99.90;;;;;;5075014;28;20060;-46
2023/12/10 10:35:03;;;;;;;20.67;3.40;;;7.60;99.90;;;;;;5075204;28;20101;-45
2023/12/10 10:37:29;;;;;;;20.25;3.08;;;8.10;99.90;;;;;;5075120;28;20045;-49
2023/12/10 10:39:56;;;;;;;16.50;3.10;;;8.20;99.90;;;;;;5075167;28;20032;-45
2023/12/10 10:42:22;;;;;;;20.15;3.97;;;7.60;99.90;;;;;;5074946;28;20056;-45
2023/12/10 10:44:48;;;;;;;26.95;5.22;;;7.60;99.90;;;;;;5075323;28;20044;-49
2023/12/10 10:47:16;;;;;;;19.63;3.08;;;8.20;99.90;;;;;;5073871;28;20044;-47
2023/12/10 10:49:51;;;;;;;28.10;3.83;;;7.90;99.90;;;;;;5074885;28;20036;-47
2023/12/10 10:52:21;;;;;;;19.27;3.72;;;8.30;99.90;;;;;;5074670;28;20036;-47
2023/12/10 10:54:48;;;;;;;28.23;5.15;;;8.30;99.90;;;;;;5074616;28;20036;-60
2023/12/10 10:57:29;;;;;;;24.80;3.63;;;7.70;99.90;;;;;;5074781;28;20052;-60
2023/12/10 10:59:56;;;;;;;19.05;3.50;;;8.30;99.90;;;;;;5074836;28;20060;-60
2023/12/10 11:02:22;;;;;;;21.30;3.00;;;8.30;99.90;;;;;;5074601;28;20036;-60
2023/12/10 11:04:50;;;;;;;20.10;2.90;;;7.90;99.90;;;;;;5074844;28;20051;-60
2023/12/10 11:07:18;;;;;;;22.75;2.80;;;7.70;99.90;;;;;;5074561;28;20048;-60
2023/12/10 11:10:03;;;;;;;27.60;3.70;;;7.80;99.90;;;;;;5074496;28;20055;-60
2023/12/10 11:12:48;;;;;;;24.42;3.80;;;7.70;99.90;;;;;;5074444;28;20447;-59
2023/12/10 11:15:17;;;;;;;22.77;3.30;;;8.10;99.90;;;;;;5073069;28;20052;-60
2023/12/10 11:17:51;;;;;;;22.67;4.05;;;8.30;99.90;;;;;;5074448;28;20076;-61
2023/12/10 11:20:39;;;;;;;26.30;3.72;;;8.00;99.90;;;;;;5074383;28;20044;-60
2023/12/10 11:23:07;;;;;;;22.95;3.30;;;8.10;99.90;;;;;;5074570;28;20055;-60
2023/12/10 11:25:34;;;;;;;16.67;3.40;;;8.20;99.90;;;;;;5074417;28;20101;-60
2023/12/10 11:28:07;;;;;;;26.85;3.40;;;8.10;99.90;;;;;;5072671;28;20032;-47
2023/12/10 11:30:33;;;;;;;25.55;4.63;;;8.30;99.90;;;;;;5074028;28;20044;-50
2023/12/10 11:32:58;;;;;;;27.75;3.85;;;8.30;99.90;;;;;;5073842;28;20049;-48
2023/12/10 11:35:24;;;;;;;27.15;4.00;;;7.90;99.90;;;;;;5074042;28;20047;-45
2023/12/10 11:37:50;;;;;;;27.65;4.80;;;8.20;99.90;;;;;;5074188;28;20344;-45
2023/12/10 11:40:16;;;;;;;25.17;3.53;;;7.90;99.90;;;;;;5073933;28;20036;-61
2023/12/10 11:42:42;;;;;;;30.23;4.53;;;8.00;99.90;;;;;;5072601;28;20119;-60
2023/12/10 11:45:08;;;;;;;34.15;6.57;;;8.30;99.90;;;;;;5073836;28;20115;-60
2023/12/10 11:47:34;;;;;;;27.85;3.70;;;8.30;99.90;;;;;;5073545;28;20555;-61
2023/12/10 11:50:02;;;;;;;27.80;4.90;;;8.30;99.90;;;;;;5073924;28;20123;-60
2023/12/10 11:52:30;;;;;;;27.67;5.10;;;8.30;99.90;;;;;;5073904;28;20453;-46
2023/12/10 11:54:56;;;;;;;21.70;3.70;;;8.20;99.90;;;;;;5073732;28;20115;-47
2023/12/10 11:57:22;;;;;;;24.67;3.67;;;8.20;99.90;;;;;;5073574;28;20458;-46
2023/12/10 11:59:48;;;;;;;20.95;3.53;;;8.20;99.90;;;;;;5073820;28;20123;-48
2023/12/10 12:02:15;;;;;;;26.40;3.58;;;8.20;99.90;;;;;;5073706;28;20028;-46
2023/12/10 12:04:41;;;;;;;20.45;3.38;;;8.20;99.90;;;;;;5073758;28;20048;-60
2023/12/10 12:07:22;;;;;;;28.95;4.20;;;8.30;99.90;;;;;;5073428;28;20105;-60
2023/12/10 12:09:48;;;;;;;20.65;3.38;;;8.00;99.90;;;;;;5073291;28;20056;-46
2023/12/10 12:12:14;;;;;;;17.80;3.67;;;8.30;99.90;;;;;;5073204;28;20040;-46
2023/12/10 12:14:39;;;;;;;19.58;4.15;;;8.30;99.90;;;;;;5073104;28;20058;-48
2023/12/10 12:17:06;;;;;;;32.65;4.80;;;8.20;99.90;;;;;;5073358;28;20044;-49
2023/12/10 12:19:31;;;;;;;31.27;4.90;;;8.00;99.90;;;;;;5073180;28;20120;-46
2023/12/10 12:21:58;;;;;;;38.58;5.30;;;8.00;99.90;;;;;;5073050;28;20044;-46
2023/12/10 12:24:24;;;;;;;29.27;4.40;;;8.00;99.90;;;;;;5071710;28;20053;-46
2023/12/10 12:26:51;;;;;;;32.42;5.05;;;8.10;99.90;;;;;;5072908;28;20094;-48
2023/12/10 12:29:17;;;;;;;38.80;6.50;;;8.00;99.90;;;;;;5072905;28;20044;-47
2023/12/10 12:31:43;;;;;;;25.98;4.05;;;8.00;99.90;;;;;;5072834;28;20052;-47
2023/12/10 12:34:09;;;;;;;32.05;5.90;;;8.20;99.90;;;;;;5072775;28;20048;-44
2023/12/10 12:36:35;;;;;;;27.02;4.13;;;8.10;99.90;;;;;;5071579;28;20048;-46
2023/12/10 12:39:03;;;;;;;24.92;4.32;;;8.30;99.90;;;;;;5072860;28;20516;-50
2023/12/10 12:41:29;;;;;;;30.25;5.63;;;8.30;99.90;;;;;;5071868;28;20060;-47
2023/12/10 12:43:56;;;;;;;25.27;5.18;;;8.30;99.90;;;;;;5072942;28;20040;-50